Time;durP1;ratioP1;P1;durP2;ratioP2;P2;SDS_P1;SDS_P2;PMS_P1;PMS_P2;Temp;Humidity;BMP_temperature;BMP_pressure;BME280_temperature;BME280_humidity;BME280_pressure;Samples;Min_cycle;Max_cycle;Signal;HPM_P1;HPM_P2
2023/07/14 00:00:36;;;;;;;6.55;1.48;;;20.70;97.60;;;;;;5033327;28;20048;-83
2023/07/14 00:03:04;;;;;;;4.53;1.25;;;20.70;97.90;;;;;;5034162;28;20041;-82
2023/07/14 00:05:35;;;;;;;4.80;1.58;;;20.70;98.20;;;;;;5033896;28;20025;-83
2023/07/14 00:08:03;;;;;;;2.15;1.15;;;20.70;98.60;;;;;;5032768;28;20454;-83
2023/07/14 00:10:34;;;;;;;4.47;1.00;;;20.70;99.40;;;;;;5033307;28;20021;-82
2023/07/14 00:13:03;;;;;;;3.60;1.40;;;20.60;99.20;;;;;;5032528;28;20036;-84
2023/07/14 00:15:31;;;;;;;3.50;1.73;;;20.70;99.30;;;;;;5033956;28;20084;-84
2023/07/14 00:18:17;;;;;;;3.72;1.25;;;20.60;99.10;;;;;;5033019;28;20083;-84
2023/07/14 00:20:42;;;;;;;2.80;1.40;;;20.60;99.80;;;;;;5033358;28;20493;-86
2023/07/14 00:23:12;;;;;;;4.57;1.70;;;20.60;99.90;;;;;;5033355;28;20025;-85
2023/07/14 00:25:38;;;;;;;2.55;1.02;;;20.60;99.70;;;;;;5033217;28;20443;-84
2023/07/14 00:28:11;;;;;;;3.83;1.20;;;20.60;99.90;;;;;;5032863;28;20074;-85
2023/07/14 00:30:37;;;;;;;4.70;1.10;;;20.60;99.90;;;;;;5034009;28;20064;-85
2023/07/14 00:33:13;;;;;;;5.80;1.33;;;20.60;99.90;;;;;;5033112;28;20025;-86
2023/07/14 00:35:39;;;;;;;;;;;20.60;99.90;;;;;;5034630;28;20033;-85
2023/07/14 00:38:05;;;;;;;4.27;1.37;;;20.50;99.90;;;;;;5033285;28;19912;-86
2023/07/14 00:40:42;;;;;;;6.78;1.38;;;20.50;99.90;;;;;;5033020;28;20094;-86
2023/07/14 00:43:20;;;;;;;7.03;1.45;;;20.50;99.90;;;;;;5033214;28;20500;-85
2023/07/14 00:45:51;;;;;;;4.00;1.50;;;20.50;99.90;;;;;;5032952;28;20021;-86
2023/07/14 00:48:20;;;;;;;3.20;1.27;;;20.40;99.90;;;;;;5034458;28;20025;-86
2023/07/14 00:51:02;;;;;;;7.55;1.60;;;20.40;99.90;;;;;;5033062;28;20397;-87
2023/07/14 00:53:35;;;;;;;4.95;1.63;;;20.40;99.90;;;;;;5034595;28;20048;-86
2023/07/14 00:56:42;;;;;;;3.38;1.38;;;20.30;99.90;;;;;;5032672;28;20398;-84
2023/07/14 00:59:16;;;;;;;2.42;1.25;;;20.20;99.90;;;;;;5032015;28;20030;-84
2023/07/14 01:02:21;;;;;;;3.55;1.50;;;20.20;99.90;;;;;;5032924;28;20038;-88
2023/07/14 01:05:07;;;;;;;2.30;1.38;;;20.10;99.90;;;;;;5031270;28;20025;-89
2023/07/14 01:07:43;;;;;;;2.95;1.50;;;20.00;99.90;;;;;;5034077;28;20036;-88
2023/07/14 01:10:15;;;;;;;5.15;1.17;;;20.00;99.90;;;;;;5032512;28;20033;-88
2023/07/14 01:12:47;;;;;;;2.45;1.42;;;19.90;99.90;;;;;;5034270;28;20478;-89
2023/07/14 01:15:13;;;;;;;4.72;1.30;;;19.90;99.90;;;;;;5034048;28;20026;-86
2023/07/14 01:17:40;;;;;;;2.40;1.38;;;19.90;99.90;;;;;;5032766;28;20025;-86
2023/07/14 01:20:10;;;;;;;8.27;1.60;;;19.90;99.90;;;;;;5033387;28;20547;-86
2023/07/14 01:22:46;;;;;;;2.70;1.20;;;19.80;99.90;;;;;;5032233;28;20033;-87
2023/07/14 01:25:32;;;;;;;2.75;1.20;;;19.80;99.90;;;;;;5031945;28;20084;-88
2023/07/14 01:27:58;;;;;;;;;;;19.80;99.90;;;;;;5032984;28;20112;-87
2023/07/14 01:30:25;;;;;;;6.50;1.60;;;19.70;99.90;;;;;;5032024;28;19952;-86
2023/07/14 01:32:51;;;;;;;4.25;1.55;;;19.70;99.90;;;;;;5031909;28;20052;-86
2023/07/14 01:35:20;;;;;;;6.05;1.45;;;19.60;99.90;;;;;;5033174;28;20021;-86
2023/07/14 01:37:46;;;;;;;3.60;1.65;;;19.50;99.90;;;;;;5033123;28;20469;-86
2023/07/14 01:40:18;;;;;;;2.95;1.70;;;19.50;99.90;;;;;;5032726;28;20120;-86
2023/07/14 01:42:49;;;;;;;3.65;1.45;;;19.40;99.90;;;;;;5033957;28;20017;-87
2023/07/14 01:45:18;;;;;;;3.45;1.40;;;19.40;99.90;;;;;;5032280;28;20037;-86
2023/07/14 01:47:49;;;;;;;4.90;1.65;;;19.30;99.90;;;;;;5032634;28;20021;-85
2023/07/14 01:50:25;;;;;;;5.40;1.48;;;19.30;99.90;;;;;;5031238;28;20035;-86
2023/07/14 01:53:00;;;;;;;4.32;2.35;;;19.20;99.90;;;;;;5032764;28;20029;-85
2023/07/14 01:55:32;;;;;;;3.95;1.65;;;19.20;99.90;;;;;;5032602;28;20486;-86
2023/07/14 01:57:59;;;;;;;8.15;1.80;;;19.20;99.90;;;;;;5031746;28;20463;-85
2023/07/14 02:00:25;;;;;;;4.18;1.70;;;19.10;99.90;;;;;;5031511;28;20124;-86
2023/07/14 02:02:53;;;;;;;3.85;1.38;;;19.10;99.90;;;;;;5032910;28;20018;-87
2023/07/14 02:05:38;;;;;;;5.88;1.60;;;19.10;99.90;;;;;;5032149;28;20033;-88
2023/07/14 02:08:10;;;;;;;5.15;1.52;;;19.00;99.90;;;;;;5032943;28;20025;-87
2023/07/14 02:10:36;;;;;;;7.78;1.40;;;19.00;99.90;;;;;;5032556;28;20523;-87
2023/07/14 02:13:02;;;;;;;3.17;1.55;;;18.90;99.90;;;;;;5032607;28;20029;-86
2023/07/14 02:15:32;;;;;;;3.20;1.60;;;18.80;99.90;;;;;;5032953;28;20025;-88
2023/07/14 02:18:00;;;;;;;2.63;1.45;;;18.70;99.90;;;;;;5032835;28;20029;-87
2023/07/14 02:20:33;;;;;;;3.00;1.67;;;18.70;99.90;;;;;;5032832;28;20073;-88
2023/07/14 02:23:01;;;;;;;4.30;1.40;;;18.60;99.90;;;;;;5031733;28;20029;-88
2023/07/14 02:25:34;;;;;;;3.97;1.90;;;18.60;99.90;;;;;;5031642;28;20064;-86
2023/07/14 02:27:59;;;;;;;5.70;1.63;;;18.60;99.90;;;;;;5030368;28;20028;-87
2023/07/14 02:30:28;;;;;;;2.33;1.33;;;18.50;99.90;;;;;;5032585;28;20476;-88
2023/07/14 02:33:00;;;;;;;8.15;2.25;;;18.50;99.90;;;;;;5032786;28;20064;-86
2023/07/14 02:35:39;;;;;;;5.97;1.75;;;18.50;99.90;;;;;;5032674;28;20021;-88
2023/07/14 02:38:13;;;;;;;6.35;1.90;;;18.50;99.90;;;;;;5032864;28;20101;-88
2023/07/14 02:41:02;;;;;;;4.55;1.55;;;18.40;99.90;;;;;;5032369;28;20033;-87
2023/07/14 02:43:27;;;;;;;4.85;2.10;;;18.40;99.90;;;;;;5031877;28;20034;-84
2023/07/14 02:46:13;;;;;;;5.50;1.95;;;18.40;99.90;;;;;;5031130;28;20099;-85
2023/07/14 02:48:42;;;;;;;9.00;1.88;;;18.40;99.90;;;;;;5029415;28;20018;-85
2023/07/14 02:51:08;;;;;;;3.83;1.90;;;18.40;99.90;;;;;;5030579;28;20037;-85
2023/07/14 02:53:34;;;;;;;5.50;1.90;;;18.30;99.90;;;;;;5030673;28;20026;-86
2023/07/14 02:55:59;;;;;;;4.20;2.58;;;18.30;99.90;;;;;;5031859;28;20490;-86
2023/07/14 02:58:25;;;;;;;5.53;2.78;;;18.30;99.90;;;;;;5031501;28;20444;-87
2023/07/14 03:00:52;;;;;;;3.40;2.00;;;18.20;99.90;;;;;;5031472;28;20640;-86
2023/07/14 03:03:18;;;;;;;4.43;1.95;;;18.20;99.90;;;;;;5033992;28;20037;-88
2023/07/14 03:05:44;;;;;;;5.10;1.90;;;18.10;99.90;;;;;;5034247;28;20082;-84
2023/07/14 03:08:14;;;;;;;5.18;2.30;;;18.10;99.90;;;;;;5034810;28;20029;-82
2023/07/14 03:10:42;;;;;;;11.73;2.90;;;18.10;99.90;;;;;;5034849;28;20105;-85
2023/07/14 03:13:07;;;;;;;14.45;1.35;;;18.10;99.90;;;;;;5035047;28;20171;-86
2023/07/14 03:15:33;;;;;;;4.28;1.92;;;18.20;99.90;;;;;;5033803;28;20492;-86
2023/07/14 03:18:00;;;;;;;5.45;1.67;;;18.20;99.90;;;;;;5033191;28;20029;-86
2023/07/14 03:20:26;;;;;;;6.43;1.55;;;18.20;99.90;;;;;;5033501;28;20048;-86
2023/07/14 03:22:51;;;;;;;5.65;1.90;;;18.20;99.90;;;;;;5034626;28;20108;-86
2023/07/14 03:25:17;;;;;;;6.30;1.85;;;18.30;99.90;;;;;;5034868;28;20082;-86
2023/07/14 03:27:44;;;;;;;4.80;1.95;;;18.40;99.90;;;;;;5033852;28;20040;-86
2023/07/14 03:30:10;;;;;;;3.42;1.63;;;18.40;99.90;;;;;;5034523;28;20464;-86
2023/07/14 03:32:35;;;;;;;5.07;1.80;;;18.50;99.90;;;;;;5034717;28;20030;-86
2023/07/14 03:35:01;;;;;;;5.32;1.88;;;18.50;99.90;;;;;;5034926;28;20084;-87
2023/07/14 03:37:26;;;;;;;3.97;1.60;;;18.60;99.90;;;;;;5034275;28;20103;-87
2023/07/14 03:39:52;;;;;;;8.48;1.95;;;18.60;99.90;;;;;;5035192;28;20034;-88
2023/07/14 03:42:18;;;;;;;5.20;2.13;;;18.70;99.90;;;;;;5035797;28;20036;-87
2023/07/14 03:44:43;;;;;;;3.67;1.88;;;18.80;99.90;;;;;;5033236;28;20468;-86
2023/07/14 03:47:09;;;;;;;3.80;1.80;;;18.80;99.90;;;;;;5033671;28;20099;-86
2023/07/14 03:49:35;;;;;;;6.82;2.03;;;18.90;99.90;;;;;;5031294;28;20025;-87
2023/07/14 03:52:02;;;;;;;3.17;1.55;;;19.00;99.90;;;;;;5032534;28;20155;-89
2023/07/14 03:54:28;;;;;;;7.82;2.03;;;19.00;99.90;;;;;;5035375;28;20104;-85
2023/07/14 03:56:54;;;;;;;4.88;1.50;;;19.10;99.90;;;;;;5033737;28;20026;-88
2023/07/14 03:59:20;;;;;;;4.78;1.52;;;19.10;99.90;;;;;;5036204;28;20033;-87
2023/07/14 04:01:47;;;;;;;6.82;1.83;;;19.20;99.90;;;;;;5034760;28;20051;-86
2023/07/14 04:04:15;;;;;;;3.40;1.73;;;19.30;99.90;;;;;;5034730;28;20036;-87
2023/07/14 04:06:41;;;;;;;3.08;1.80;;;19.30;99.90;;;;;;5033705;28;20409;-87
2023/07/14 04:09:07;;;;;;;5.93;1.75;;;19.40;99.90;;;;;;5034344;28;20026;-87
2023/07/14 04:11:36;;;;;;;3.50;1.45;;;19.40;99.90;;;;;;5034674;28;20037;-87
2023/07/14 04:14:03;;;;;;;6.32;1.88;;;19.60;99.90;;;;;;5034430;28;20025;-87
2023/07/14 04:16:29;;;;;;;5.15;1.90;;;19.70;99.90;;;;;;5034639;28;20057;-86
2023/07/14 04:18:55;;;;;;;6.47;1.67;;;19.70;99.90;;;;;;5034750;28;20018;-84
2023/07/14 04:21:24;;;;;;;6.18;1.70;;;19.70;99.90;;;;;;5034507;28;20135;-86
2023/07/14 04:23:51;;;;;;;9.73;2.05;;;19.70;99.90;;;;;;5034498;28;20027;-85
2023/07/14 04:26:17;;;;;;;4.07;1.45;;;19.80;99.90;;;;;;5032872;28;20029;-85
2023/07/14 04:28:43;;;;;;;6.13;1.80;;;19.80;99.90;;;;;;5033179;28;20130;-85
2023/07/14 04:31:08;;;;;;;5.25;1.73;;;19.80;99.90;;;;;;5032702;28;20033;-84
2023/07/14 04:33:34;;;;;;;2.78;1.38;;;19.90;99.90;;;;;;5034381;28;20053;-84
2023/07/14 04:36:00;;;;;;;5.90;1.98;;;20.00;99.90;;;;;;5033010;28;20044;-84
2023/07/14 04:38:25;;;;;;;4.85;1.75;;;20.20;99.90;;;;;;5034302;28;20068;-83
2023/07/14 04:40:52;;;;;;;8.68;2.28;;;20.30;99.90;;;;;;5034059;28;20040;-85
2023/07/14 04:43:18;;;;;;;6.47;1.60;;;20.40;99.90;;;;;;5033359;28;20018;-85
2023/07/14 04:45:45;;;;;;;4.63;1.85;;;20.60;99.90;;;;;;5031625;28;20497;-84
2023/07/14 04:48:17;;;;;;;6.60;1.77;;;20.70;99.90;;;;;;5033038;28;20079;-84
2023/07/14 04:50:45;;;;;;;10.52;1.67;;;20.80;99.90;;;;;;5034055;28;20053;-84
2023/07/14 04:53:12;;;;;;;8.70;1.60;;;20.90;99.90;;;;;;5033660;28;20032;-84
2023/07/14 04:55:40;;;;;;;6.43;1.70;;;21.00;99.90;;;;;;5033767;28;20017;-84
2023/07/14 04:58:06;;;;;;;3.63;1.40;;;21.20;99.90;;;;;;5032393;28;20112;-84
2023/07/14 05:00:33;;;;;;;8.18;1.88;;;21.30;99.90;;;;;;5032483;28;20037;-85
2023/07/14 05:02:59;;;;;;;8.88;1.83;;;21.40;99.90;;;;;;5031426;28;20032;-84
2023/07/14 05:05:26;;;;;;;3.85;1.70;;;21.60;99.90;;;;;;5032806;28;20033;-84
2023/07/14 05:07:52;;;;;;;8.02;1.92;;;21.60;99.90;;;;;;5031445;28;20036;-83
2023/07/14 05:10:20;;;;;;;3.58;1.20;;;21.80;99.90;;;;;;5032809;28;20508;-84
2023/07/14 05:12:51;;;;;;;8.93;1.60;;;21.90;99.90;;;;;;5033048;28;20101;-85
2023/07/14 05:17:33;;;;;;;3.08;1.58;;;22.10;99.90;;;;;;5089477;28;20735;-85
2023/07/14 05:19:58;;;;;;;3.75;1.80;;;22.30;99.90;;;;;;5089564;28;20507;-84
2023/07/14 05:22:24;;;;;;;11.48;1.52;;;22.40;99.90;;;;;;5089780;28;20032;-85
2023/07/14 05:24:50;;;;;;;7.95;1.40;;;22.60;99.90;;;;;;5089459;28;20096;-85
2023/07/14 05:27:15;;;;;;;6.38;1.45;;;22.80;99.90;;;;;;5088844;28;20743;-83
2023/07/14 05:29:41;;;;;;;9.73;1.83;;;23.00;99.90;;;;;;5087188;28;20548;-84
2023/07/14 05:32:07;;;;;;;2.35;1.30;;;23.00;99.90;;;;;;5089050;28;20483;-83
2023/07/14 05:34:33;;;;;;;8.50;1.63;;;22.90;99.90;;;;;;5088260;28;20056;-85
2023/07/14 05:36:58;;;;;;;7.63;2.17;;;23.00;99.90;;;;;;5089675;28;20037;-84
2023/07/14 05:39:25;;;;;;;3.13;1.58;;;23.10;99.90;;;;;;5089588;28;20021;-87
2023/07/14 05:41:51;;;;;;;6.88;1.50;;;23.10;99.90;;;;;;5088446;28;20035;-87
2023/07/14 05:44:16;;;;;;;5.10;1.60;;;23.30;99.90;;;;;;5089220;28;20020;-87
2023/07/14 05:46:42;;;;;;;3.80;1.60;;;23.40;99.90;;;;;;5087556;28;20024;-87
2023/07/14 05:49:08;;;;;;;3.85;1.80;;;23.60;99.90;;;;;;5087944;28;20069;-87
2023/07/14 05:51:33;;;;;;;4.82;1.48;;;23.70;99.90;;;;;;5088296;28;20089;-85
2023/07/14 05:53:59;;;;;;;2.03;1.38;;;23.90;99.90;;;;;;5088058;28;20120;-86
2023/07/14 05:56:25;;;;;;;6.97;2.20;;;24.20;99.90;;;;;;5089160;28;20102;-86
2023/07/14 05:58:50;;;;;;;3.58;1.95;;;24.50;99.90;;;;;;5089203;28;20452;-85
2023/07/14 06:01:16;;;;;;;3.45;1.33;;;24.90;99.90;;;;;;5088356;28;20097;-85
2023/07/14 06:03:42;;;;;;;3.70;2.10;;;25.30;99.90;;;;;;5089204;28;20020;-85
2023/07/14 06:06:07;;;;;;;3.85;1.50;;;26.10;98.30;;;;;;5089092;28;20033;-86
2023/07/14 06:08:33;;;;;;;5.78;1.73;;;27.50;95.20;;;;;;5089042;28;20024;-86
2023/07/14 06:10:59;;;;;;;2.50;1.77;;;28.90;90.20;;;;;;5087996;28;20036;-85
2023/07/14 06:13:25;;;;;;;2.60;1.80;;;29.80;80.30;;;;;;5088599;28;20099;-85
2023/07/14 06:15:51;;;;;;;4.38;1.50;;;30.40;73.30;;;;;;5091034;28;20055;-84
2023/07/14 06:18:17;;;;;;;5.88;1.60;;;31.80;69.80;;;;;;5088738;28;20031;-85
2023/07/14 06:20:43;;;;;;;6.80;1.50;;;32.00;64.10;;;;;;5089174;28;20021;-86
2023/07/14 06:23:09;;;;;;;4.60;1.65;;;32.60;61.70;;;;;;5089095;28;20389;-86
2023/07/14 06:25:34;;;;;;;5.25;1.40;;;33.20;60.20;;;;;;5087497;28;20392;-86
2023/07/14 06:28:01;;;;;;;6.15;1.35;;;33.60;57.80;;;;;;5080016;28;20173;-86
2023/07/14 06:30:27;;;;;;;4.88;1.60;;;34.20;56.40;;;;;;5075238;28;20028;-85
2023/07/14 06:32:52;;;;;;;6.28;1.33;;;33.90;54.80;;;;;;5074472;28;20024;-85
2023/07/14 06:35:19;;;;;;;3.03;1.30;;;34.10;54.80;;;;;;5072048;28;20027;-86
2023/07/14 06:37:44;;;;;;;3.70;1.48;;;34.40;54.30;;;;;;5073958;28;20058;-85
2023/07/14 06:40:11;;;;;;;2.85;1.50;;;34.80;53.40;;;;;;5074728;28;20540;-84
2023/07/14 06:42:37;;;;;;;3.78;1.55;;;35.10;52.40;;;;;;5074835;28;20048;-85
2023/07/14 06:45:03;;;;;;;4.65;1.65;;;35.40;51.80;;;;;;5074522;28;20028;-86
2023/07/14 06:47:30;;;;;;;5.43;1.67;;;35.60;50.80;;;;;;5074574;28;20035;-86
2023/07/14 06:49:56;;;;;;;2.22;1.50;;;35.60;50.50;;;;;;5074810;28;20025;-86
2023/07/14 06:52:22;;;;;;;8.65;1.15;;;35.40;50.40;;;;;;5073650;28;20431;-85
2023/07/14 06:54:48;;;;;;;7.03;1.13;;;35.40;50.60;;;;;;5072337;28;20025;-85
2023/07/14 06:57:14;;;;;;;4.20;1.70;;;35.40;49.80;;;;;;5073387;28;20064;-86
2023/07/14 06:59:41;;;;;;;1.35;0.90;;;35.30;49.30;;;;;;5073174;28;20519;-85
2023/07/14 07:02:10;;;;;;;5.07;1.77;;;35.50;49.10;;;;;;5073473;28;20056;-85
2023/07/14 07:04:35;;;;;;;3.38;1.42;;;35.60;49.10;;;;;;5073527;28;20013;-84
2023/07/14 07:07:01;;;;;;;4.22;1.60;;;35.60;49.10;;;;;;5072834;28;20063;-86
2023/07/14 07:09:27;;;;;;;1.75;1.23;;;35.80;48.60;;;;;;5072739;28;20025;-85
2023/07/14 07:11:53;;;;;;;3.95;1.60;;;35.90;47.60;;;;;;5072725;28;20036;-85
2023/07/14 07:14:19;;;;;;;1.73;1.52;;;35.80;47.70;;;;;;5073907;28;20024;-85
2023/07/14 07:16:44;;;;;;;5.40;1.50;;;35.80;48.40;;;;;;5072009;28;20062;-85
2023/07/14 07:19:10;;;;;;;4.68;1.85;;;35.60;48.90;;;;;;5073650;28;20017;-85
2023/07/14 07:21:36;;;;;;;2.30;1.40;;;35.40;48.50;;;;;;5072518;28;20480;-84
2023/07/14 07:24:05;;;;;;;5.40;1.90;;;34.80;49.50;;;;;;5072317;28;20532;-85
2023/07/14 07:26:31;;;;;;;2.65;1.58;;;34.40;49.20;;;;;;5073839;28;20464;-86
2023/07/14 07:28:57;;;;;;;3.60;1.70;;;34.10;50.50;;;;;;5072484;28;20051;-85
2023/07/14 07:31:23;;;;;;;2.55;1.52;;;34.00;51.50;;;;;;5073757;28;20149;-86
2023/07/14 07:33:48;;;;;;;3.58;1.52;;;33.90;50.60;;;;;;5073359;28;20107;-86
2023/07/14 07:36:15;;;;;;;3.92;1.45;;;34.30;50.50;;;;;;5071978;28;20016;-85
2023/07/14 07:38:50;;;;;;;1.92;1.30;;;34.00;50.50;;;;;;5072524;28;20033;-86
2023/07/14 07:41:18;;;;;;;2.90;1.77;;;33.60;51.80;;;;;;5073054;28;20021;-85
2023/07/14 07:43:44;;;;;;;2.60;1.10;;;33.70;52.00;;;;;;5072162;28;20029;-85
2023/07/14 07:46:10;;;;;;;3.47;1.60;;;34.00;50.00;;;;;;5071623;28;20155;-85
2023/07/14 07:48:36;;;;;;;3.25;1.80;;;34.20;51.00;;;;;;5072820;28;20154;-85
2023/07/14 07:51:04;;;;;;;2.30;1.70;;;34.70;51.00;;;;;;5073029;28;20479;-85
2023/07/14 07:53:30;;;;;;;7.68;2.10;;;35.10;50.40;;;;;;5071607;28;20033;-85
2023/07/14 07:55:57;;;;;;;5.93;1.50;;;35.30;49.10;;;;;;5071766;28;20024;-86
2023/07/14 07:58:26;;;;;;;4.20;1.50;;;35.60;48.90;;;;;;5070646;28;20032;-85
2023/07/14 08:01:01;;;;;;;3.45;1.63;;;36.10;47.70;;;;;;5071460;28;20024;-85
2023/07/14 08:03:30;;;;;;;3.15;1.33;;;36.40;46.70;;;;;;5071216;28;20412;-85
2023/07/14 08:06:04;;;;;;;2.28;1.55;;;36.40;46.80;;;;;;5072012;28;20032;-85
2023/07/14 08:08:31;;;;;;;5.80;1.33;;;36.70;46.10;;;;;;5070170;28;20092;-85
2023/07/14 08:10:57;;;;;;;4.40;1.35;;;36.80;45.20;;;;;;5071110;28;20040;-85
2023/07/14 08:13:25;;;;;;;4.43;1.75;;;37.10;42.80;;;;;;5071293;28;20097;-85
2023/07/14 08:15:54;;;;;;;3.83;1.70;;;36.80;42.20;;;;;;5072336;28;20508;-85
2023/07/14 08:18:21;;;;;;;5.32;1.30;;;36.60;41.50;;;;;;5071132;28;20064;-85
2023/07/14 08:20:49;;;;;;;2.10;1.30;;;36.40;41.40;;;;;;5070927;28;20020;-84
2023/07/14 08:23:16;;;;;;;1.50;1.00;;;35.90;38.70;;;;;;5071320;28;20032;-85
2023/07/14 08:25:42;;;;;;;3.42;1.65;;;35.20;40.60;;;;;;5070991;28;20032;-85
2023/07/14 08:28:08;;;;;;;4.47;1.38;;;34.90;40.60;;;;;;5072374;28;20037;-85
2023/07/14 08:30:34;;;;;;;2.45;1.40;;;34.50;40.50;;;;;;5073797;28;20031;-86
2023/07/14 08:32:59;;;;;;;4.03;1.20;;;34.20;40.80;;;;;;5074346;28;20028;-86
2023/07/14 08:35:25;;;;;;;2.00;1.30;;;34.10;42.40;;;;;;5071701;28;20071;-86
2023/07/14 08:37:51;;;;;;;6.00;1.67;;;33.90;42.20;;;;;;5071030;28;20024;-84
2023/07/14 08:40:29;;;;;;;3.60;1.30;;;34.10;43.60;;;;;;5071294;28;20017;-86
2023/07/14 08:43:33;;;;;;;1.70;1.10;;;34.40;43.20;;;;;;5072148;28;20028;-85
2023/07/14 08:46:17;;;;;;;3.38;1.30;;;34.60;42.10;;;;;;5071932;28;20040;-86
2023/07/14 08:48:52;;;;;;;2.20;1.30;;;33.70;42.80;;;;;;5071027;28;20028;-86
2023/07/14 08:51:20;;;;;;;1.77;1.27;;;33.80;43.50;;;;;;5070887;28;20032;-86
2023/07/14 08:53:52;;;;;;;2.80;1.48;;;33.90;42.90;;;;;;5072162;28;20091;-86
2023/07/14 08:56:19;;;;;;;10.40;2.17;;;33.90;43.00;;;;;;5070981;28;20064;-85
2023/07/14 08:58:46;;;;;;;3.67;1.13;;;33.80;42.80;;;;;;5069690;28;20106;-85
2023/07/14 09:01:21;;;;;;;2.72;0.88;;;33.40;42.20;;;;;;5070738;28;20028;-86
2023/07/14 09:03:58;;;;;;;4.15;1.52;;;33.40;43.50;;;;;;5071087;28;20530;-85
2023/07/14 09:06:32;;;;;;;2.03;1.08;;;33.70;42.70;;;;;;5070663;28;20040;-86
2023/07/14 09:08:58;;;;;;;3.20;1.17;;;33.70;41.90;;;;;;5070748;28;20024;-85
2023/07/14 09:11:45;;;;;;;1.27;1.00;;;33.90;42.80;;;;;;5070365;28;20062;-86
2023/07/14 09:14:43;;;;;;;2.97;1.45;;;33.90;42.90;;;;;;5070195;28;20021;-84
2023/07/14 09:18:10;;;;;;;2.80;1.27;;;34.00;42.80;;;;;;5071737;28;20058;-85
2023/07/14 09:20:50;;;;;;;3.08;1.30;;;34.10;43.30;;;;;;5019501;28;20159;-85
2023/07/14 09:23:38;;;;;;;3.03;1.30;;;34.10;44.10;;;;;;5028749;28;20160;-86
2023/07/14 09:26:13;;;;;;;3.78;1.55;;;34.40;43.60;;;;;;5061490;28;20033;-85
2023/07/14 09:28:49;;;;;;;4.10;1.50;;;33.90;42.60;;;;;;5069404;28;20040;-83
2023/07/14 09:31:18;;;;;;;2.50;1.52;;;34.10;43.90;;;;;;5070795;28;20029;-86
2023/07/14 09:34:04;;;;;;;2.13;1.45;;;34.50;44.10;;;;;;5072050;28;20028;-86
2023/07/14 09:36:35;;;;;;;3.28;1.42;;;34.90;42.00;;;;;;5070360;28;20025;-85
2023/07/14 09:39:04;;;;;;;6.72;1.55;;;35.20;43.10;;;;;;5070756;28;20519;-87
2023/07/14 09:41:31;;;;;;;2.08;1.10;;;35.30;41.80;;;;;;5069712;28;20032;-86
2023/07/14 09:43:58;;;;;;;3.00;1.52;;;35.20;43.10;;;;;;5068881;28;20095;-86
2023/07/14 09:46:25;;;;;;;3.28;1.10;;;35.50;42.70;;;;;;5071026;28;20044;-86
2023/07/14 09:49:03;;;;;;;3.25;1.30;;;35.70;43.50;;;;;;5071765;28;20021;-86
2023/07/14 09:51:28;;;;;;;4.15;1.45;;;36.30;42.30;;;;;;5070211;28;20032;-86
2023/07/14 09:53:59;;;;;;;2.60;1.30;;;36.50;40.60;;;;;;5071651;28;20027;-85
2023/07/14 09:56:31;;;;;;;1.98;1.20;;;36.50;42.30;;;;;;5071531;28;20036;-85
2023/07/14 09:59:21;;;;;;;6.32;1.42;;;36.40;39.40;;;;;;5071007;28;20040;-86
2023/07/14 10:01:59;;;;;;;3.90;1.40;;;36.40;40.30;;;;;;5062159;28;20039;-85
2023/07/14 10:04:31;;;;;;;3.50;1.33;;;36.80;38.00;;;;;;5074666;28;20032;-86
2023/07/14 10:07:22;;;;;;;3.92;1.20;;;36.10;39.80;;;;;;5073326;28;20440;-86
2023/07/14 10:09:59;;;;;;;2.70;1.10;;;35.20;40.30;;;;;;5073562;28;20123;-86
2023/07/14 10:12:34;;;;;;;6.80;1.38;;;34.30;41.60;;;;;;5075360;28;20027;-85
2023/07/14 10:15:00;;;;;;;3.80;1.23;;;33.30;43.50;;;;;;5075138;28;20024;-85
2023/07/14 10:17:27;;;;;;;4.25;1.33;;;32.70;45.50;;;;;;5073478;28;20048;-85
2023/07/14 10:19:56;;;;;;;3.85;1.20;;;32.20;46.30;;;;;;5072537;28;20024;-84
2023/07/14 10:22:31;;;;;;;4.15;1.70;;;31.80;47.90;;;;;;5074107;28;20454;-84
2023/07/14 10:24:58;;;;;;;;;;;31.60;47.50;;;;;;5073650;28;20032;-85
2023/07/14 10:27:38;;;;;;;1.85;1.10;;;31.20;47.50;;;;;;5074894;28;20384;-84
2023/07/14 10:30:14;;;;;;;2.38;1.38;;;30.90;47.30;;;;;;5072122;28;20059;-84
2023/07/14 10:32:49;;;;;;;3.22;1.73;;;30.90;49.00;;;;;;5072145;28;20039;-83
2023/07/14 10:35:29;;;;;;;3.17;1.50;;;30.80;50.10;;;;;;5071927;28;20032;-84
2023/07/14 10:38:16;;;;;;;4.25;1.30;;;31.00;50.20;;;;;;5073412;28;20033;-83
2023/07/14 10:41:03;;;;;;;1.73;1.33;;;31.20;49.80;;;;;;5071433;28;20097;-83
2023/07/14 10:43:43;;;;;;;2.85;1.23;;;31.20;48.60;;;;;;5071887;28;20060;-84
2023/07/14 10:46:44;;;;;;;5.07;1.38;;;31.10;49.50;;;;;;5073935;28;20527;-84
2023/07/14 10:49:15;;;;;;;3.30;1.48;;;30.90;48.60;;;;;;5068194;28;20060;-84
2023/07/14 10:51:56;;;;;;;3.78;1.40;;;30.80;48.30;;;;;;5073542;28;20056;-84
2023/07/14 10:54:50;;;;;;;2.13;1.30;;;30.70;49.70;;;;;;5072144;28;20028;-84
2023/07/14 10:57:43;;;;;;;4.25;1.80;;;30.70;49.50;;;;;;5065106;28;20568;-83
2023/07/14 11:00:19;;;;;;;1.88;1.38;;;30.60;49.40;;;;;;5071368;28;20033;-83
2023/07/14 11:02:50;;;;;;;2.13;1.42;;;30.60;49.30;;;;;;5071567;28;20016;-83
2023/07/14 11:05:19;;;;;;;4.05;1.70;;;30.50;48.40;;;;;;5072854;28;20032;-83
2023/07/14 11:07:45;;;;;;;3.53;1.60;;;30.50;49.80;;;;;;5072938;28;20127;-84
2023/07/14 11:10:50;;;;;;;3.10;1.40;;;30.40;49.40;;;;;;5071836;28;20115;-84
2023/07/14 11:13:33;;;;;;;3.65;2.17;;;30.50;49.90;;;;;;5041242;28;20032;-85
2023/07/14 11:16:09;;;;;;;3.70;1.60;;;30.40;50.10;;;;;;5072080;28;20036;-84
2023/07/14 11:18:38;;;;;;;3.30;1.50;;;30.40;52.00;;;;;;5072706;28;20028;-85
2023/07/14 11:21:27;;;;;;;3.28;1.30;;;30.60;51.60;;;;;;5072136;28;20038;-85
2023/07/14 11:24:08;;;;;;;4.45;1.33;;;30.60;49.30;;;;;;5070011;28;20036;-85
2023/07/14 11:26:57;;;;;;;2.17;1.70;;;30.30;49.80;;;;;;5070768;28;20029;-85
2023/07/14 11:29:26;;;;;;;2.67;1.65;;;30.20;51.00;;;;;;5040719;28;20067;-84
2023/07/14 11:31:56;;;;;;;4.18;1.48;;;30.00;49.70;;;;;;5071866;28;20056;-84
2023/07/14 11:34:42;;;;;;;3.13;1.98;;;29.90;51.10;;;;;;5072212;28;20020;-84
2023/07/14 11:37:24;;;;;;;2.92;1.38;;;29.90;50.20;;;;;;5071201;28;20555;-85
2023/07/14 11:39:56;;;;;;;1.83;1.30;;;29.80;50.80;;;;;;5070874;28;20029;-84
2023/07/14 11:42:26;;;;;;;3.00;1.63;;;29.50;50.30;;;;;;5073596;28;20021;-86
2023/07/14 11:44:55;;;;;;;2.55;1.38;;;29.30;49.90;;;;;;5073530;28;20036;-85
2023/07/14 11:47:36;;;;;;;3.30;1.40;;;29.10;50.20;;;;;;5072030;28;20036;-86
2023/07/14 11:50:24;;;;;;;2.65;1.20;;;29.20;51.40;;;;;;5071360;28;20024;-86
2023/07/14 11:53:06;;;;;;;2.30;1.33;;;29.20;51.10;;;;;;5072210;28;20047;-86
2023/07/14 11:55:33;;;;;;;4.88;1.50;;;29.10;51.30;;;;;;5072150;28;20484;-86
2023/07/14 11:58:28;;;;;;;2.63;1.67;;;29.00;51.00;;;;;;5072096;28;20020;-85
2023/07/14 12:01:12;;;;;;;4.10;1.35;;;28.90;51.80;;;;;;5073209;28;20095;-86
2023/07/14 12:03:47;;;;;;;2.95;1.40;;;28.90;52.80;;;;;;5072564;28;20027;-86
2023/07/14 12:06:18;;;;;;;2.28;1.30;;;28.90;52.30;;;;;;5069908;28;20029;-86
2023/07/14 12:09:13;;;;;;;2.78;1.40;;;28.90;51.00;;;;;;5072150;28;20397;-86
2023/07/14 12:11:39;;;;;;;5.70;1.55;;;29.10;53.10;;;;;;5072785;28;20028;-87
2023/07/14 12:14:32;;;;;;;8.57;1.40;;;29.50;51.90;;;;;;5072962;28;20032;-84
2023/07/14 12:16:59;;;;;;;3.60;1.50;;;29.50;50.90;;;;;;5071256;28;20049;-85
2023/07/14 12:19:44;;;;;;;4.65;2.05;;;29.50;50.50;;;;;;5071991;28;20055;-85
2023/07/14 12:22:10;;;;;;;2.97;1.43;;;29.40;49.20;;;;;;5071548;28;20081;-85
2023/07/14 12:24:50;;;;;;;2.08;1.30;;;29.20;49.90;;;;;;5072264;28;20036;-85
2023/07/14 12:27:32;;;;;;;3.67;2.08;;;29.20;50.60;;;;;;5071873;28;20033;-85
2023/07/14 12:30:15;;;;;;;2.20;1.40;;;29.40;52.30;;;;;;5072269;28;20044;-87
2023/07/14 12:32:41;;;;;;;5.22;1.20;;;29.60;50.10;;;;;;5071233;28;20036;-85
2023/07/14 12:35:16;;;;;;;2.53;1.70;;;29.60;49.10;;;;;;5072953;28;20113;-87
2023/07/14 12:37:42;;;;;;;2.70;1.60;;;29.80;49.30;;;;;;5072384;28;20066;-87
2023/07/14 12:40:31;;;;;;;9.75;1.38;;;30.10;48.90;;;;;;5070794;28;20024;-83
2023/07/14 12:42:59;;;;;;;2.83;1.63;;;30.30;46.50;;;;;;5070565;28;20032;-84
2023/07/14 12:45:24;;;;;;;5.22;1.42;;;30.20;46.30;;;;;;5071294;28;20036;-85
2023/07/14 12:47:54;;;;;;;1.58;1.10;;;30.10;47.30;;;;;;5071013;28;20119;-85
2023/07/14 12:50:23;;;;;;;2.88;1.25;;;29.90;47.90;;;;;;5070708;28;20222;-85
2023/07/14 12:52:49;;;;;;;5.55;1.40;;;29.80;49.10;;;;;;5070641;28;20028;-86
2023/07/14 12:55:18;;;;;;;2.08;1.05;;;29.80;49.60;;;;;;5070658;28;20024;-85
2023/07/14 12:57:47;;;;;;;1.67;0.93;;;29.90;48.50;;;;;;5072417;28;20039;-85
2023/07/14 13:00:26;;;;;;;5.75;1.70;;;30.10;48.60;;;;;;5072450;28;20021;-86
2023/07/14 13:02:53;;;;;;;1.95;1.17;;;30.30;48.10;;;;;;5075980;28;20119;-86
2023/07/14 13:05:21;;;;;;;4.90;1.25;;;30.40;46.60;;;;;;5075943;28;20017;-85
2023/07/14 13:07:53;;;;;;;3.75;1.20;;;30.70;47.20;;;;;;5076495;28;20037;-87
2023/07/14 13:10:27;;;;;;;5.35;1.30;;;30.80;47.00;;;;;;5080841;28;20046;-85